• Join FlightAware (Why Join?)
  • Login
  • US Flag 
11:59PM EDT


 

Airport Tracker/Info


-or-


 

Live Flight TrackerFlight Track Log ✈ FLG3616 ✈ 30-Jun-2013 ✈ KDTW - KAZO

Flight Track Log - Related Links

Times and Time Zones

All times are in EDT time to prevent confusion due to time zone crossing. See the FLG3616 flight status page for this flight to view local times or setup timezone preferences in your user account.

Time Position Orientation Groundspeed Altitude Reporting Facility
EDT Latitude Longitude Course Direction KTS MPH feet Rate Location/Type
04:28PM 42.2292 -83.3369 276° West 146 168 1,200  Level Cleveland Center
04:29PM 42.2808 -83.3506 349° North 202 232 3,400 1,980 Climbing Cleveland Center
04:30PM 42.3364 -83.3808 338° Northwest 253 291 5,500 2,160 Climbing Cleveland Center
04:31PM 42.2213 -83.7143 276° West  Level FlightAware Approximate
04:31PM 42.3803 -83.4617 306° West 283 326 7,800  Level Cleveland Center
04:32PM 42.2300 -83.8363 276° West  Level FlightAware Approximate
04:32PM 42.3964 -83.5719 281° West 306 352 10,100  Level Cleveland Center
04:33PM 42.2388 -83.9584 276° West  Level FlightAware Approximate
04:33PM 42.3633 -83.7167 253° West 367 422 10,800  Level Cleveland Center
04:34PM 42.3367 -83.8444 254° West 374 430 12,000 600 Climbing Cleveland Center
04:35PM 42.3056 -83.9917 254° West 380 437 12,000  Level Cleveland Center
04:36PM 42.2761 -84.1306 254° West 385 443 12,000 -60 Level Cleveland Center
04:37PM 42.2614 -84.2728 262° West 395 455 11,900  Descending Cleveland Center
04:38PM 42.2403 -84.4064 258° West 384 442 12,000 -480 Climbing Cleveland Center
04:39PM 42.2189 -84.5425 258° West 379 436 11,000 -1,020 Descending Cleveland Center
04:40PM 42.2133 -84.6394 266° West 378 435 10,300 -600 Descending Chicago Center
04:41PM 42.2014 -84.7850 264° West 386 444 10,000 -180 Descending Chicago Center
04:42PM 42.1914 -84.9272 265° West 385 443 10,000 -60 Level Chicago Center
04:43PM 42.1756 -85.0533 260° West 352 405 9,900 -900 Descending Chicago Center
04:44PM 42.1492 -85.1728 253° West 304 350 8,200 -1,980 Descending Chicago Center
04:45PM 42.1136 -85.2650 243° Southwest 288 331 5,800 -2,280 Descending Chicago Center
04:46PM 42.0797 -85.3561 243° Southwest 280 322 3,500 -1,500 Descending Chicago Center
04:47PM 42.0500 -85.4408 245° Southwest 262 302 2,800 -360 Descending Chicago Center
04:48PM 42.0794 -85.5111 299° West 211 243 2,800  Level Chicago Center